createdAt,value
2018-10-03T00:00:39.231Z,67.47
2018-10-03T00:03:06.647Z,66.99
2018-10-03T00:05:34.063Z,67.02
2018-10-03T00:08:01.471Z,67.67
2018-10-03T00:10:28.874Z,67.78
2018-10-03T00:12:56.355Z,68.07
2018-10-03T00:15:23.791Z,68.16
2018-10-03T00:17:51.208Z,68.11
2018-10-03T00:20:18.622Z,68.00
2018-10-03T00:22:46.076Z,68.22
2018-10-03T00:25:13.488Z,67.47
2018-10-03T00:27:40.907Z,67.96
2018-10-03T00:30:08.345Z,68.50
2018-10-03T00:32:35.814Z,68.02
2018-10-03T00:35:03.267Z,67.91
2018-10-03T00:37:30.719Z,68.33
2018-10-03T00:39:58.132Z,68.64
2018-10-03T00:42:25.634Z,68.62
2018-10-03T00:44:53.057Z,68.16
2018-10-03T00:47:20.499Z,68.61
2018-10-03T00:49:47.923Z,68.22
2018-10-03T00:52:15.334Z,68.56
2018-10-03T00:54:42.826Z,68.86
2018-10-03T00:57:10.251Z,67.87
2018-10-03T00:59:37.916Z,68.48
2018-10-03T01:02:05.393Z,68.44
2018-10-03T01:04:33.028Z,68.54
2018-10-03T01:07:00.448Z,68.20
2018-10-03T01:09:27.879Z,68.30
2018-10-03T01:11:55.303Z,67.80
2018-10-03T01:14:22.710Z,68.43
2018-10-03T01:16:50.150Z,68.25
2018-10-03T01:19:17.601Z,67.83
2018-10-03T01:21:45.055Z,68.40
2018-10-03T01:24:12.478Z,67.57
2018-10-03T01:26:39.891Z,67.20
2018-10-03T01:29:07.327Z,67.03
2018-10-03T01:31:34.755Z,66.65
2018-10-03T01:34:02.208Z,66.41
2018-10-03T01:36:29.623Z,66.54
2018-10-03T01:38:57.040Z,66.88
2018-10-03T01:41:24.516Z,66.94
2018-10-03T01:43:51.939Z,66.56
2018-10-03T01:46:19.429Z,66.37
2018-10-03T01:48:46.854Z,66.22
2018-10-03T01:51:14.348Z,66.24
2018-10-03T01:53:41.776Z,66.34
2018-10-03T01:56:09.328Z,65.62
2018-10-03T01:58:36.747Z,66.00
2018-10-03T02:01:04.163Z,65.62
2018-10-03T02:03:31.564Z,65.65
2018-10-03T02:05:58.978Z,65.09
2018-10-03T02:08:26.410Z,63.59
2018-10-03T02:10:53.897Z,63.43
2018-10-03T02:13:21.318Z,62.44
2018-10-03T02:15:48.738Z,62.53
2018-10-03T02:18:16.237Z,62.10
2018-10-03T02:20:43.676Z,62.01
2018-10-03T02:23:11.090Z,60.63
2018-10-03T02:25:38.559Z,60.53
2018-10-03T02:28:05.967Z,60.56
2018-10-03T02:30:33.388Z,59.54
2018-10-03T02:33:00.815Z,59.34
2018-10-03T02:35:28.267Z,58.51
2018-10-03T02:37:55.685Z,58.27
2018-10-03T02:40:23.191Z,57.81
2018-10-03T02:42:50.743Z,57.63
2018-10-03T02:45:20.639Z,57.74
2018-10-03T02:47:48.044Z,57.98
2018-10-03T02:50:15.454Z,56.59
2018-10-03T02:52:42.870Z,56.94
2018-10-03T02:55:10.289Z,57.42
2018-10-03T02:57:37.699Z,57.17
2018-10-03T03:00:05.151Z,57.37
2018-10-03T03:02:32.571Z,57.83
2018-10-03T03:04:59.996Z,58.14
2018-10-03T03:07:27.495Z,58.12
2018-10-03T03:09:54.911Z,57.80
2018-10-03T03:12:22.329Z,58.36
2018-10-03T03:14:49.750Z,58.71
2018-10-03T03:17:17.170Z,59.58
2018-10-03T03:19:44.587Z,59.35
2018-10-03T03:22:12.005Z,59.43
2018-10-03T03:24:39.424Z,59.64
2018-10-03T03:27:06.853Z,59.73
2018-10-03T03:29:34.291Z,59.59
2018-10-03T03:32:01.841Z,59.80
2018-10-03T03:34:29.286Z,59.89
2018-10-03T03:36:56.678Z,60.18
2018-10-03T03:39:24.103Z,60.02
2018-10-03T03:41:51.520Z,60.02
2018-10-03T03:44:18.935Z,59.92
2018-10-03T03:46:46.346Z,60.43
2018-10-03T03:49:13.779Z,60.58
2018-10-03T03:51:41.195Z,61.00
2018-10-03T03:54:08.618Z,60.55
2018-10-03T03:56:36.040Z,60.82
2018-10-03T03:59:03.467Z,60.46
2018-10-03T04:01:30.879Z,60.15
2018-10-03T04:03:58.307Z,60.16
2018-10-03T04:06:25.719Z,60.33
2018-10-03T04:08:53.139Z,60.54
2018-10-03T04:11:20.660Z,60.48
2018-10-03T04:13:48.119Z,60.48
2018-10-03T04:16:15.559Z,61.14
2018-10-03T04:18:42.970Z,60.81
2018-10-03T04:21:10.405Z,61.22
2018-10-03T04:23:37.816Z,61.28
2018-10-03T04:26:05.244Z,61.53
2018-10-03T04:28:32.664Z,60.84
2018-10-03T04:31:00.116Z,59.93
2018-10-03T04:33:27.563Z,59.46
2018-10-03T04:35:55.000Z,59.16
2018-10-03T04:38:22.418Z,58.87
2018-10-03T04:40:49.836Z,58.50
2018-10-03T04:43:17.246Z,58.24
2018-10-03T04:45:44.723Z,58.31
2018-10-03T04:48:12.232Z,58.15
2018-10-03T04:50:39.659Z,58.06
2018-10-03T04:53:07.079Z,58.72
2018-10-03T04:55:34.650Z,59.02
2018-10-03T04:58:02.067Z,58.89
2018-10-03T05:00:29.487Z,59.28
2018-10-03T05:02:56.904Z,59.67
2018-10-03T05:05:24.335Z,59.92
2018-10-03T05:07:51.755Z,60.15
2018-10-03T05:10:19.182Z,60.24
2018-10-03T05:12:46.598Z,60.21
2018-10-03T05:15:14.027Z,59.82
2018-10-03T05:17:41.437Z,59.30
2018-10-03T05:20:08.866Z,59.31
2018-10-03T05:22:36.275Z,59.36
2018-10-03T05:25:03.699Z,58.90
2018-10-03T05:27:31.107Z,57.70
2018-10-03T05:29:58.579Z,57.22
2018-10-03T05:32:26.000Z,57.19
2018-10-03T05:34:53.423Z,56.18
2018-10-03T05:37:20.855Z,54.89
2018-10-03T05:39:48.343Z,55.94
2018-10-03T05:42:15.730Z,54.96
2018-10-03T05:44:43.236Z,54.64
2018-10-03T05:47:10.663Z,54.72
2018-10-03T05:49:38.089Z,54.02
2018-10-03T05:52:05.565Z,54.53
2018-10-03T05:54:32.992Z,53.95
2018-10-03T05:57:00.409Z,54.71
2018-10-03T05:59:27.815Z,53.65
2018-10-03T06:01:55.282Z,53.89
2018-10-03T06:04:22.695Z,53.18
2018-10-03T06:06:56.638Z,53.67
2018-10-03T06:09:24.051Z,53.19
2018-10-03T06:11:51.478Z,52.93
2018-10-03T06:16:52.551Z,53.05
2018-10-03T06:19:19.982Z,53.22
2018-10-03T06:21:47.391Z,52.61
2018-10-03T06:24:14.803Z,53.14
2018-10-03T06:26:42.218Z,52.47
2018-10-03T06:29:09.635Z,53.23
2018-10-03T06:31:37.114Z,52.75
2018-10-03T06:34:04.529Z,52.56
2018-10-03T06:36:31.972Z,52.70
2018-10-03T06:38:59.388Z,52.61
2018-10-03T06:41:26.825Z,52.60
2018-10-03T06:43:54.315Z,52.23
2018-10-03T06:46:21.730Z,52.83
2018-10-03T06:48:49.372Z,52.70
2018-10-03T06:51:16.791Z,52.16
2018-10-03T06:53:44.216Z,51.62
2018-10-03T06:56:11.634Z,51.89
2018-10-03T06:58:39.055Z,52.19
2018-10-03T07:01:06.468Z,52.46
2018-10-03T07:03:33.900Z,53.01
2018-10-03T07:06:01.317Z,53.40
2018-10-03T07:08:28.771Z,53.87
2018-10-03T07:10:56.191Z,56.09
2018-10-03T07:13:23.618Z,58.92
2018-10-03T07:15:51.177Z,61.97
2018-10-03T07:18:18.601Z,63.59
2018-10-03T07:20:46.015Z,64.02
2018-10-03T07:23:13.511Z,60.19
2018-10-03T07:25:40.935Z,62.42
2018-10-03T07:28:08.432Z,62.92
2018-10-03T07:30:35.850Z,64.54
2018-10-03T07:33:03.273Z,65.23
2018-10-03T07:35:30.795Z,65.29
2018-10-03T07:37:58.273Z,65.01
2018-10-03T07:40:25.695Z,64.04
2018-10-03T07:42:53.124Z,65.00
2018-10-03T07:45:20.544Z,62.80
2018-10-03T07:47:47.957Z,61.73
2018-10-03T07:50:15.438Z,61.62
2018-10-03T07:52:42.948Z,61.72
2018-10-03T07:55:10.360Z,62.64
2018-10-03T07:57:37.841Z,61.05
2018-10-03T08:00:05.211Z,60.59
2018-10-03T08:02:32.631Z,60.79
2018-10-03T08:05:00.047Z,59.25
2018-10-03T08:07:27.464Z,59.64
2018-10-03T08:09:54.924Z,59.84
2018-10-03T08:12:22.303Z,60.20
2018-10-03T08:14:49.724Z,58.95
2018-10-03T08:17:17.184Z,58.00
2018-10-03T08:19:44.570Z,57.11
2018-10-03T08:22:12.095Z,57.23
2018-10-03T08:24:39.621Z,56.42
2018-10-03T08:27:06.993Z,57.70
2018-10-03T08:29:34.423Z,56.83
2018-10-03T08:32:01.868Z,56.19
2018-10-03T08:34:29.305Z,56.78
2018-10-03T08:36:56.728Z,56.43
2018-10-03T08:39:24.227Z,55.85
2018-10-03T08:41:51.747Z,54.99
2018-10-03T08:44:19.160Z,54.04
2018-10-03T08:46:46.583Z,54.14
2018-10-03T08:49:13.999Z,53.60
2018-10-03T08:51:41.440Z,52.74
2018-10-03T08:54:08.863Z,52.55
2018-10-03T08:56:36.275Z,52.92
2018-10-03T08:59:03.700Z,51.68
2018-10-03T09:01:31.139Z,50.69
2018-10-03T09:03:58.660Z,51.22
2018-10-03T09:06:26.099Z,50.39
2018-10-03T09:08:53.643Z,51.07
2018-10-03T09:11:21.198Z,50.40
2018-10-03T09:13:48.691Z,50.31
2018-10-03T09:16:16.126Z,49.89
2018-10-03T09:18:43.678Z,49.53
2018-10-03T09:21:11.089Z,48.69
2018-10-03T09:23:38.503Z,47.84
2018-10-03T09:26:05.930Z,47.68
2018-10-03T09:28:33.328Z,48.12
2018-10-03T09:31:00.764Z,49.72
2018-10-03T09:33:28.170Z,49.77
2018-10-03T09:35:55.595Z,48.75
2018-10-03T09:38:23.011Z,47.54
2018-10-03T09:40:50.434Z,47.89
2018-10-03T09:43:17.859Z,47.04
2018-10-03T09:45:45.291Z,48.55
2018-10-03T09:48:12.695Z,48.00
2018-10-03T09:50:40.159Z,48.31
2018-10-03T09:53:07.577Z,48.66
2018-10-03T09:55:34.983Z,48.73
2018-10-03T09:58:02.406Z,48.89
2018-10-03T10:00:35.219Z,49.61
2018-10-03T10:03:02.727Z,49.83
2018-10-03T10:05:30.147Z,49.72
2018-10-03T10:07:57.571Z,49.81
2018-10-03T10:10:25.048Z,50.84
2018-10-03T10:12:52.444Z,50.66
2018-10-03T10:15:19.920Z,49.83
2018-10-03T10:17:47.660Z,49.96
2018-10-03T10:20:15.335Z,49.57
2018-10-03T10:22:42.779Z,47.28
2018-10-03T10:25:10.292Z,47.94
2018-10-03T10:27:37.723Z,47.66
2018-10-03T10:30:05.159Z,48.18
2018-10-03T10:32:32.618Z,47.64
2018-10-03T10:35:00.291Z,48.15
2018-10-03T10:37:27.783Z,47.29
2018-10-03T10:39:55.204Z,48.12
2018-10-03T10:42:22.624Z,50.16
2018-10-03T10:44:50.036Z,50.31
2018-10-03T10:47:17.457Z,52.09
2018-10-03T10:49:44.967Z,55.69
2018-10-03T10:52:12.425Z,57.65
2018-10-03T10:54:39.849Z,58.14
2018-10-03T10:57:07.285Z,59.06
2018-10-03T10:59:34.728Z,59.69
2018-10-03T11:02:02.155Z,58.11
2018-10-03T11:04:29.570Z,59.06
2018-10-03T11:06:57.064Z,56.29
2018-10-03T11:09:24.475Z,56.09
2018-10-03T11:11:51.889Z,55.90
2018-10-03T11:14:19.315Z,53.94
2018-10-03T11:16:46.789Z,54.76
2018-10-03T11:19:14.151Z,53.01
2018-10-03T11:21:41.708Z,52.22
2018-10-03T11:24:09.205Z,52.62
2018-10-03T11:26:36.562Z,56.90
2018-10-03T11:29:03.976Z,56.73
2018-10-03T11:31:31.764Z,57.71
2018-10-03T11:33:59.178Z,62.27
2018-10-03T11:36:26.607Z,61.20
2018-10-03T11:38:54.034Z,62.47
2018-10-03T11:41:21.479Z,60.77
2018-10-03T11:43:49.000Z,61.35
2018-10-03T11:46:16.354Z,60.19
2018-10-03T11:48:43.843Z,61.50
2018-10-03T11:51:11.268Z,59.12
2018-10-03T11:53:38.696Z,59.51
2018-10-03T11:56:06.115Z,58.19
2018-10-03T11:58:33.531Z,58.47
2018-10-03T12:01:00.948Z,57.96
2018-10-03T12:03:28.396Z,57.52
2018-10-03T12:05:55.811Z,55.09
2018-10-03T12:08:23.231Z,56.31
2018-10-03T12:10:50.651Z,57.86
2018-10-03T12:13:18.121Z,61.57
2018-10-03T12:15:45.539Z,64.68
2018-10-03T12:18:12.950Z,67.39
2018-10-03T12:20:40.367Z,66.98
2018-10-03T12:23:07.793Z,67.33
2018-10-03T12:25:35.207Z,67.29
2018-10-03T12:28:02.628Z,67.55
2018-10-03T12:30:30.039Z,67.48
2018-10-03T12:32:57.463Z,68.03
2018-10-03T12:35:30.193Z,69.14
2018-10-03T12:37:57.704Z,67.87
2018-10-03T12:40:25.117Z,69.55
2018-10-03T12:42:52.629Z,67.61
2018-10-03T12:45:20.051Z,66.88
2018-10-03T12:47:47.474Z,66.28
2018-10-03T12:50:14.996Z,65.82
2018-10-03T12:52:42.453Z,64.58
2018-10-03T12:55:09.884Z,63.47
2018-10-03T12:57:37.292Z,62.81
2018-10-03T13:00:04.710Z,62.23
2018-10-03T13:02:32.346Z,61.75
2018-10-03T13:04:59.849Z,61.09
2018-10-03T13:07:27.274Z,59.76
2018-10-03T13:09:54.679Z,59.34
2018-10-03T13:12:22.092Z,57.58
2018-10-03T13:14:49.507Z,57.94
2018-10-03T13:17:16.914Z,57.65
2018-10-03T13:19:44.558Z,57.32
2018-10-03T13:22:11.972Z,56.95
2018-10-03T13:24:39.404Z,56.61
2018-10-03T13:27:06.820Z,56.29
2018-10-03T13:29:34.248Z,55.86
2018-10-03T13:32:01.668Z,55.19
2018-10-03T13:34:29.080Z,53.86
2018-10-03T13:36:56.692Z,54.31
2018-10-03T13:39:24.145Z,52.46
2018-10-03T13:41:51.566Z,53.31
2018-10-03T13:44:19.007Z,52.52
2018-10-03T13:46:46.468Z,51.59
2018-10-03T13:49:14.060Z,51.69
2018-10-03T13:51:41.467Z,52.77
2018-10-03T13:54:08.895Z,51.56
2018-10-03T13:56:36.310Z,52.63
2018-10-03T13:59:03.731Z,52.58
2018-10-03T14:01:31.140Z,52.24
2018-10-03T14:03:58.562Z,51.39
2018-10-03T14:06:25.979Z,51.86
2018-10-03T14:08:53.396Z,50.17
2018-10-03T14:11:20.810Z,50.37
2018-10-03T14:13:48.238Z,51.01
2018-10-03T14:16:15.650Z,51.29
2018-10-03T14:18:43.135Z,51.12
2018-10-03T14:21:10.484Z,51.85
2018-10-03T14:23:37.895Z,51.88
2018-10-03T14:26:05.311Z,52.64
2018-10-03T14:28:32.795Z,52.24
2018-10-03T14:31:00.284Z,52.16
2018-10-03T14:33:27.701Z,53.05
2018-10-03T14:35:55.120Z,52.83
2018-10-03T14:38:22.619Z,52.76
2018-10-03T14:40:50.040Z,52.85
2018-10-03T14:43:17.450Z,52.72
2018-10-03T14:45:44.878Z,52.78
2018-10-03T14:48:12.327Z,52.82
2018-10-03T14:50:39.816Z,53.90
2018-10-03T14:53:07.237Z,55.33
2018-10-03T14:55:34.699Z,57.61
2018-10-03T14:58:02.116Z,57.06
2018-10-03T15:00:29.637Z,57.82
2018-10-03T15:02:57.096Z,56.80
2018-10-03T15:05:24.515Z,56.94
2018-10-03T15:07:51.927Z,57.04
2018-10-03T15:10:19.346Z,56.96
2018-10-03T15:12:46.787Z,58.27
2018-10-03T15:15:14.180Z,58.50
2018-10-03T15:17:41.586Z,57.87
2018-10-03T15:20:09.003Z,57.49
2018-10-03T15:22:36.419Z,58.19
2018-10-03T15:25:03.843Z,57.97
2018-10-03T15:27:31.271Z,58.35
2018-10-03T15:29:58.843Z,58.29
2018-10-03T15:32:26.127Z,58.66
2018-10-03T15:34:53.578Z,58.65
2018-10-03T15:37:21.047Z,58.05
2018-10-03T15:39:48.552Z,57.12
2018-10-03T15:42:15.972Z,57.55
2018-10-03T15:44:43.540Z,57.77
2018-10-03T15:47:10.943Z,57.75
2018-10-03T15:49:38.484Z,57.89
2018-10-03T15:52:05.908Z,57.75
2018-10-03T15:54:33.327Z,57.43
2018-10-03T15:57:00.743Z,58.05
2018-10-03T15:59:28.200Z,58.27
2018-10-03T16:01:55.668Z,59.75
2018-10-03T16:04:23.083Z,60.00
2018-10-03T16:06:50.507Z,58.22
2018-10-03T16:09:17.938Z,58.74
2018-10-03T16:11:45.403Z,60.80
2018-10-03T16:14:12.826Z,62.09
2018-10-03T16:16:40.247Z,63.95
2018-10-03T16:19:07.655Z,64.51
2018-10-03T16:21:35.079Z,66.55
2018-10-03T16:24:02.495Z,67.66
2018-10-03T16:26:30.125Z,68.32
2018-10-03T16:28:57.366Z,68.26
2018-10-03T16:31:24.797Z,69.73
2018-10-03T16:33:52.216Z,69.94
2018-10-03T16:36:19.775Z,69.81
2018-10-03T16:38:47.274Z,70.20
2018-10-03T16:41:14.619Z,70.12
2018-10-03T16:43:42.032Z,68.95
2018-10-03T16:46:09.881Z,69.48
2018-10-03T16:48:37.299Z,69.66
2018-10-03T16:51:04.731Z,69.34
2018-10-03T16:53:32.155Z,69.38
2018-10-03T16:55:59.583Z,68.94
2018-10-03T16:58:27.092Z,69.79
2018-10-03T17:00:54.624Z,70.33
2018-10-03T17:03:22.001Z,70.21
2018-10-03T17:05:49.426Z,70.58
2018-10-03T17:08:16.859Z,70.96
2018-10-03T17:10:44.287Z,70.79
2018-10-03T17:13:11.723Z,68.59
2018-10-03T17:15:39.148Z,67.45
2018-10-03T17:18:06.563Z,67.68
2018-10-03T17:20:33.977Z,66.89
2018-10-03T17:23:01.392Z,66.41
2018-10-03T17:25:28.811Z,67.36
2018-10-03T17:27:56.230Z,67.20
2018-10-03T17:30:23.654Z,65.49
2018-10-03T17:32:51.079Z,64.81
2018-10-03T17:35:18.507Z,65.22
2018-10-03T17:37:46.006Z,64.96
2018-10-03T17:40:13.427Z,65.35
2018-10-03T17:42:40.851Z,65.06
2018-10-03T17:45:08.288Z,65.49
2018-10-03T17:47:35.738Z,64.14
2018-10-03T17:50:03.151Z,64.09
2018-10-03T17:52:30.594Z,64.19
2018-10-03T17:54:57.990Z,63.86
2018-10-03T17:57:25.419Z,64.10
2018-10-03T17:59:52.836Z,63.71
2018-10-03T18:02:20.267Z,64.26
2018-10-03T18:04:47.732Z,64.31
2018-10-03T18:07:15.110Z,63.75
2018-10-03T18:09:42.527Z,63.86
2018-10-03T18:12:09.939Z,63.64
2018-10-03T18:14:37.369Z,64.17
2018-10-03T18:17:04.877Z,63.75
2018-10-03T18:19:32.316Z,63.70
2018-10-03T18:21:59.742Z,64.87
2018-10-03T18:24:27.172Z,64.90
2018-10-03T18:26:54.595Z,65.19
2018-10-03T18:29:22.003Z,63.67
2018-10-03T18:31:49.431Z,65.00
2018-10-03T18:34:16.841Z,65.34
2018-10-03T18:36:44.571Z,65.43
2018-10-03T18:39:12.044Z,65.54
2018-10-03T18:41:39.967Z,66.21
2018-10-03T18:44:07.382Z,66.23
2018-10-03T18:46:34.815Z,66.15
2018-10-03T18:49:02.223Z,66.44
2018-10-03T18:51:29.637Z,65.78
2018-10-03T18:53:57.091Z,65.60
2018-10-03T18:56:24.519Z,65.64
2018-10-03T18:58:51.935Z,65.78
2018-10-03T19:01:19.461Z,66.17
2018-10-03T19:03:46.867Z,67.19
2018-10-03T19:06:14.326Z,67.46
2018-10-03T19:08:41.711Z,67.27
2018-10-03T19:11:09.148Z,67.54
2018-10-03T19:13:36.581Z,68.57
2018-10-03T19:16:03.992Z,68.27
2018-10-03T19:18:31.410Z,68.42
2018-10-03T19:20:58.812Z,68.81
2018-10-03T19:23:26.227Z,68.70
2018-10-03T19:25:53.652Z,68.88
2018-10-03T19:28:21.087Z,69.41
2018-10-03T19:30:48.498Z,69.82
2018-10-03T19:33:15.908Z,70.48
2018-10-03T19:35:43.416Z,70.63
2018-10-03T19:38:10.782Z,70.32
2018-10-03T19:40:38.196Z,70.75
2018-10-03T19:43:05.615Z,70.14
2018-10-03T19:45:33.051Z,70.39
2018-10-03T19:48:00.667Z,71.13
2018-10-03T19:50:28.027Z,71.51
2018-10-03T19:52:55.452Z,70.75
2018-10-03T19:55:22.925Z,71.05
2018-10-03T19:57:50.343Z,71.43
2018-10-03T20:00:17.768Z,70.14
2018-10-03T20:02:45.179Z,70.54
2018-10-03T20:05:12.599Z,70.12
2018-10-03T20:07:40.011Z,70.16
2018-10-03T20:10:07.424Z,69.71
2018-10-03T20:12:34.839Z,69.07
2018-10-03T20:15:02.247Z,69.61
2018-10-03T20:17:29.671Z,69.82
2018-10-03T20:19:57.091Z,68.54
2018-10-03T20:22:24.535Z,68.83
2018-10-03T20:24:51.989Z,68.98
2018-10-03T20:27:19.429Z,68.91
2018-10-03T20:29:46.880Z,68.29
2018-10-03T20:32:14.307Z,67.86
2018-10-03T20:34:41.721Z,68.18
2018-10-03T20:37:09.140Z,67.84
2018-10-03T20:39:36.558Z,68.56
2018-10-03T20:42:03.981Z,68.06
2018-10-03T20:44:31.392Z,68.23
2018-10-03T20:46:58.807Z,67.79
2018-10-03T20:49:26.263Z,67.77
2018-10-03T20:51:53.687Z,67.70
2018-10-03T20:54:21.160Z,68.17
2018-10-03T20:56:48.531Z,68.27
2018-10-03T20:59:15.934Z,68.30
2018-10-03T21:01:43.457Z,68.39
2018-10-03T21:04:10.887Z,67.60
2018-10-03T21:06:38.301Z,68.23
2018-10-03T21:09:05.823Z,67.95
2018-10-03T21:11:33.243Z,66.06
2018-10-03T21:14:00.667Z,65.55
2018-10-03T21:16:28.099Z,65.49
2018-10-03T21:18:55.515Z,65.54
2018-10-03T21:21:22.962Z,65.83
2018-10-03T21:23:50.384Z,65.86
2018-10-03T21:26:17.800Z,66.11
2018-10-03T21:28:45.210Z,65.80
2018-10-03T21:31:12.635Z,65.68
2018-10-03T21:33:40.062Z,65.69
2018-10-03T21:36:07.467Z,66.45
2018-10-03T21:38:34.895Z,65.82
2018-10-03T21:41:02.329Z,65.41
2018-10-03T21:43:29.769Z,65.11
2018-10-03T21:45:57.162Z,65.21
2018-10-03T21:48:24.636Z,65.54
2018-10-03T21:50:52.150Z,65.25
2018-10-03T21:53:19.569Z,64.95
2018-10-03T21:55:46.974Z,64.74
2018-10-03T21:58:14.394Z,64.06
2018-10-03T22:00:47.194Z,64.55
2018-10-03T22:03:14.607Z,64.32
2018-10-03T22:05:42.020Z,64.21
2018-10-03T22:08:09.436Z,64.03
2018-10-03T22:10:36.842Z,64.27
2018-10-03T22:13:04.267Z,64.47
2018-10-03T22:15:31.791Z,64.19
2018-10-03T22:17:59.253Z,64.03
2018-10-03T22:20:26.674Z,63.86
2018-10-03T22:22:54.130Z,64.02
2018-10-03T22:25:21.523Z,64.40
2018-10-03T22:27:48.934Z,64.76
2018-10-03T22:30:16.424Z,64.69
2018-10-03T22:32:43.839Z,64.35
2018-10-03T22:35:11.338Z,64.74
2018-10-03T22:37:38.758Z,64.97
2018-10-03T22:40:06.172Z,65.46
2018-10-03T22:42:33.588Z,65.80
2018-10-03T22:45:01.003Z,65.82
2018-10-03T22:47:28.463Z,66.30
2018-10-03T22:49:56.051Z,67.66
2018-10-03T22:52:23.620Z,67.18
2018-10-03T22:54:51.038Z,67.66
2018-10-03T22:57:18.463Z,65.92
2018-10-03T22:59:45.885Z,66.38
2018-10-03T23:02:13.298Z,66.58
2018-10-03T23:04:40.711Z,66.22
2018-10-03T23:07:08.132Z,66.04
2018-10-03T23:09:35.551Z,66.25
2018-10-03T23:12:02.967Z,66.52
2018-10-03T23:14:30.471Z,65.98
2018-10-03T23:16:57.883Z,65.54
2018-10-03T23:19:25.308Z,65.61
2018-10-03T23:21:52.835Z,66.44
2018-10-03T23:24:20.259Z,66.07
2018-10-03T23:26:47.668Z,66.42
2018-10-03T23:29:15.099Z,66.35
2018-10-03T23:31:42.533Z,65.70
2018-10-03T23:34:09.955Z,66.06
2018-10-03T23:36:37.364Z,66.44
2018-10-03T23:39:05.003Z,65.89
2018-10-03T23:41:32.498Z,65.90
2018-10-03T23:43:59.954Z,66.02
2018-10-03T23:46:27.370Z,66.24
2018-10-03T23:48:54.870Z,66.07
2018-10-03T23:51:22.323Z,65.17
2018-10-03T23:53:49.742Z,66.10
2018-10-03T23:56:17.146Z,66.60
2018-10-03T23:58:44.598Z,67.18
